Time;durP1;ratioP1;P1;durP2;ratioP2;P2;SDS_P1;SDS_P2;PMS_P1;PMS_P2;Temp;Humidity;BMP_temperature;BMP_pressure;BME280_temperature;BME280_humidity;BME280_pressure;Samples;Min_cycle;Max_cycle;Signal;HPM_P1;HPM_P2
2024/04/03 00:00:05;;;;;;;;;1.83;1.83;;;;;13.62;69.46;100566.56;2037111;27;2737782;-72
2024/04/03 00:01:18;;;;;;;;;2.00;1.00;;;;;13.63;69.41;100570.88;2038353;27;2727352;-72
2024/04/03 00:02:31;;;;;;;;;1.00;1.00;;;;;13.64;69.57;100567.34;2037434;27;2731539;-72
2024/04/03 00:03:44;;;;;;;;;1.17;1.17;;;;;13.65;69.53;100560.25;2040987;27;2729966;-72
2024/04/03 00:04:58;;;;;;;;;1.00;1.00;;;;;13.64;69.62;100555.91;2045726;27;2739892;-72
2024/04/03 00:06:12;;;;;;;;;2.50;1.33;;;;;13.63;69.81;100557.69;2036944;27;2736719;-72
2024/04/03 00:07:25;;;;;;;;;1.00;1.00;;;;;13.65;69.59;100554.97;2038251;27;2738849;-72
2024/04/03 00:08:38;;;;;;;;;1.83;1.83;;;;;13.65;69.30;100549.69;2037929;27;2735662;-72
2024/04/03 00:09:51;;;;;;;;;0.50;0.50;;;;;13.64;69.54;100543.56;2061645;27;2729428;-72
2024/04/03 00:11:04;;;;;;;;;1.00;1.00;;;;;13.63;69.36;100543.66;2053042;27;2737824;-72
2024/04/03 00:12:18;;;;;;;;;3.50;2.00;;;;;13.64;69.49;100547.97;2036407;27;2739852;-72
2024/04/03 00:13:31;;;;;;;;;1.83;1.83;;;;;13.62;69.93;100545.44;2037951;27;2733618;-72
2024/04/03 00:14:44;;;;;;;;;2.00;2.00;;;;;13.63;69.57;100552.41;2037041;27;2732577;-72
2024/04/03 00:15:57;;;;;;;;;2.50;1.00;;;;;13.62;69.85;100545.44;2036729;27;2732553;-72
2024/04/03 00:17:10;;;;;;;;;1.00;1.00;;;;;13.59;69.71;100549.06;2038895;27;2721094;-72
2024/04/03 00:18:24;;;;;;;;;1.33;1.33;;;;;13.60;69.83;100552.56;2060733;27;2719039;-72
2024/04/03 00:19:37;;;;;;;;;1.83;1.83;;;;;13.59;69.95;100546.44;2037138;27;2737791;-72
2024/04/03 00:21:08;;;;;;;;;2.00;1.00;;;;;13.59;69.66;100548.22;2036569;27;2734705;-72
2024/04/03 00:22:22;;;;;;;;;1.00;1.00;;;;;13.58;69.73;100543.88;2036957;27;2743999;-72
2024/04/03 00:23:35;;;;;;;;;0.33;0.33;;;;;13.58;69.87;100544.72;2038906;27;2725289;-72
2024/04/03 00:24:48;;;;;;;;;1.67;1.67;;;;;13.58;69.77;100547.34;2037972;27;2741932;-72
2024/04/03 00:26:02;;;;;;;;;1.17;1.17;;;;;13.58;69.88;100539.44;2037090;27;2735681;-72
2024/04/03 00:27:15;;;;;;;;;1.00;1.00;;;;;13.59;70.18;100541.16;2038290;27;2741967;-72
2024/04/03 00:28:30;;;;;;;;;1.67;1.67;;;;;13.57;69.80;100542.16;2037016;27;2738804;-72
2024/04/03 00:29:47;;;;;;;;;1.83;1.00;;;;;13.56;69.83;100532.47;2033626;27;2733654;-72
2024/04/03 00:31:01;;;;;;;;;0.50;0.50;;;;;13.56;69.70;100540.41;2037783;27;2743992;-72
2024/04/03 00:32:15;;;;;;;;;1.00;1.00;;;;;13.55;69.99;100534.28;2038321;27;2735709;-72
2024/04/03 00:33:28;;;;;;;;;1.00;0.50;;;;;13.53;70.12;100536.13;2037662;27;2733660;-72
2024/04/03 00:34:41;;;;;;;;;0.50;0.50;;;;;13.56;70.09;100530.72;2037745;27;2733617;-72
2024/04/03 00:36:00;;;;;;;;;0.50;0.50;;;;;13.55;70.10;100526.38;2041477;27;2725305;-72
2024/04/03 00:37:14;;;;;;;;;1.00;1.00;;;;;13.55;69.89;100523.72;2037953;27;2737799;-72
2024/04/03 00:38:27;;;;;;;;;0.67;0.67;;;;;13.55;69.93;100529.00;2036041;27;2734636;-72
2024/04/03 00:39:40;;;;;;;;;0.33;0.33;;;;;13.54;69.64;100526.41;2060898;27;2733602;-72
2024/04/03 00:40:55;;;;;;;;;0.17;0.17;;;;;13.54;70.27;100523.78;2036558;27;2733965;-72
2024/04/03 00:42:08;;;;;;;;;0.00;0.00;;;;;13.52;69.92;100517.72;2068976;27;2737765;-71
2024/04/03 00:43:21;;;;;;;;;1.00;0.00;;;;;13.52;69.93;100523.88;2066927;27;2732644;-72
2024/04/03 00:44:35;;;;;;;;;0.67;0.00;;;;;13.52;70.35;100520.38;2038070;27;2735734;-72
2024/04/03 00:45:49;;;;;;;;;1.00;1.00;;;;;13.52;70.01;100515.09;2061559;27;2740893;-72
2024/04/03 00:47:03;;;;;;;;;0.67;0.67;;;;;13.51;70.15;100514.22;2038292;27;2727350;-72
2024/04/03 00:48:16;;;;;;;;;2.00;1.00;;;;;13.49;70.19;100518.72;2037416;27;2733591;-72
2024/04/03 00:49:29;;;;;;;;;1.50;1.50;;;;;13.50;70.05;100515.16;2035508;27;2735752;-72
2024/04/03 00:50:44;;;;;;;;;0.83;0.83;;;;;13.49;70.08;100514.31;2037767;27;2729427;-72
2024/04/03 00:51:57;;;;;;;;;0.67;0.67;;;;;13.48;70.18;100503.84;2038440;27;2725259;-72
2024/04/03 00:53:11;;;;;;;;;1.00;1.00;;;;;13.49;69.89;100511.66;2061110;27;2742985;-72
2024/04/03 00:54:24;;;;;;;;;1.17;1.00;;;;;13.48;70.03;100509.94;2037785;27;2739873;-72
2024/04/03 00:55:39;;;;;;;;;1.67;1.67;;;;;13.47;70.34;100505.63;2036963;27;2741931;-72
2024/04/03 00:56:52;;;;;;;;;1.50;1.50;;;;;13.46;70.29;100503.88;2036753;27;2740886;-72
2024/04/03 00:58:06;;;;;;;;;1.00;1.00;;;;;13.46;70.57;100505.66;2037246;27;2743403;-72
2024/04/03 00:59:19;;;;;;;;;1.00;1.00;;;;;13.47;70.30;100500.34;2036064;27;2735690;-72
2024/04/03 01:00:35;;;;;;;;;1.00;1.00;;;;;13.45;70.72;100490.78;2038253;27;2734656;-72
2024/04/03 01:01:49;;;;;;;;;0.67;0.67;;;;;13.47;70.16;100496.84;2037929;27;2739306;-72
2024/04/03 01:03:04;;;;;;;;;1.00;0.33;;;;;13.46;70.63;100498.59;2038052;27;2731508;-72
2024/04/03 01:04:17;;;;;;;;;1.00;1.00;;;;;13.47;70.46;100488.91;2061913;27;2737804;-72
2024/04/03 01:05:30;;;;;;;;;0.00;0.00;;;;;13.48;70.46;100490.63;2044170;27;2734083;-72
2024/04/03 01:06:43;;;;;;;;;1.00;1.00;;;;;13.45;70.69;100486.34;2037993;27;2734660;-72
2024/04/03 01:07:57;;;;;;;;;1.00;1.00;;;;;13.47;70.68;100492.41;2041254;27;2731539;-72
2024/04/03 01:09:10;;;;;;;;;1.00;1.00;;;;;13.47;70.90;100483.63;2042206;27;2732553;-72
2024/04/03 01:10:24;;;;;;;;;2.00;1.00;;;;;13.47;70.98;100486.28;2036496;27;2737765;-72
2024/04/03 01:11:38;;;;;;;;;0.50;0.50;;;;;13.45;70.79;100473.16;2038613;27;2724283;-72
2024/04/03 01:12:52;;;;;;;;;1.00;1.00;;;;;13.47;70.75;100481.00;2037233;27;2731519;-72
2024/04/03 01:14:05;;;;;;;;;0.50;0.50;;;;;13.46;70.93;100477.50;2042194;27;2737805;-72
2024/04/03 01:15:19;;;;;;;;;1.00;1.00;;;;;13.46;70.74;100474.84;2060010;27;2735681;-72
2024/04/03 01:16:32;;;;;;;;;1.33;1.00;;;;;13.43;70.92;100472.38;2037110;27;2735003;-72
2024/04/03 01:17:46;;;;;;;;;1.00;1.00;;;;;13.45;71.29;100481.06;2029471;27;2736731;-71
2024/04/03 01:18:59;;;;;;;;;1.00;1.00;;;;;13.43;70.68;100472.38;2036908;27;2737154;-72
2024/04/03 01:20:12;;;;;;;;;1.00;0.17;;;;;13.41;70.71;100474.22;2036976;27;2732557;-72
2024/04/03 01:21:23;;;;;;;;;2.00;2.00;;;;;13.38;70.78;100461.19;2032640;27;2737804;-72
2024/04/03 01:22:35;;;;;;;;;0.50;0.50;;;;;13.38;71.04;100471.75;2033364;27;2739841;-72
2024/04/03 01:23:54;;;;;;;;;3.33;1.00;;;;;13.37;71.26;100462.97;2060487;27;2736692;-72
2024/04/03 01:25:07;;;;;;;;;2.00;0.50;;;;;13.37;71.05;100477.94;2032673;27;2731543;-72
2024/04/03 01:26:20;;;;;;;;;1.83;0.50;;;;;13.37;71.23;100472.66;2038479;27;2724242;-71
2024/04/03 01:27:33;;;;;;;;;0.17;0.17;;;;;13.35;71.30;100470.13;2036925;27;2734652;-72
2024/04/03 01:28:47;;;;;;;;;0.50;0.50;;;;;13.37;71.20;100475.31;2037789;27;2733646;-72
2024/04/03 01:30:00;;;;;;;;;1.00;1.00;;;;;13.35;71.36;100471.91;2040869;27;2739849;-72
2024/04/03 01:31:13;;;;;;;;;1.00;1.00;;;;;13.34;71.37;100464.91;2038715;27;2734648;-71
2024/04/03 01:32:28;;;;;;;;;0.50;0.50;;;;;13.35;71.50;100469.25;2062419;27;2729455;-71
2024/04/03 01:33:41;;;;;;;;;1.00;1.00;;;;;13.35;71.27;100463.97;2038649;27;2738810;-72
2024/04/03 01:34:54;;;;;;;;;0.00;0.00;;;;;13.35;71.55;100459.56;2038357;27;2733603;-72
2024/04/03 01:36:08;;;;;;;;;1.17;1.00;;;;;13.36;71.44;100460.38;2038989;27;2741960;-72
2024/04/03 01:37:21;;;;;;;;;1.00;1.00;;;;;13.37;71.78;100456.84;2043433;27;2725284;-71
2024/04/03 01:38:34;;;;;;;;;0.33;0.33;;;;;13.35;71.42;100458.69;2045640;27;2731542;-72
2024/04/03 01:39:47;;;;;;;;;1.50;1.00;;;;;13.35;71.61;100450.78;2037876;27;2733622;-72
2024/04/03 01:41:01;;;;;;;;;0.83;0.83;;;;;13.36;71.80;100455.09;2038331;27;2737772;-71
2024/04/03 01:42:14;;;;;;;;;1.00;1.00;;;;;13.35;71.53;100446.34;2038791;27;2735716;-71
2024/04/03 01:43:27;;;;;;;;;3.50;1.83;;;;;13.35;71.74;100448.13;2038207;27;2746143;-71
2024/04/03 01:44:40;;;;;;;;;1.33;1.33;;;;;13.35;71.96;100445.50;2037715;27;2734689;-71
2024/04/03 01:45:58;;;;;;;;;3.17;2.00;;;;;13.34;71.80;100441.13;2039211;27;2739298;-71
2024/04/03 01:47:11;;;;;;;;;3.00;1.50;;;;;13.35;71.85;100445.50;2038484;27;2733600;-72
2024/04/03 01:48:24;;;;;;;;;2.00;2.00;;;;;13.34;71.82;100431.44;2038060;27;2735700;-72
2024/04/03 01:49:37;;;;;;;;;2.00;1.83;;;;;13.36;71.65;100444.56;2038674;27;2735762;-72
2024/04/03 01:50:51;;;;;;;;;0.33;0.33;;;;;13.34;71.89;100434.06;2038395;27;2733610;-72
2024/04/03 01:52:04;;;;;;;;;1.00;1.00;;;;;13.34;71.70;100435.84;2061928;27;2739860;-72
2024/04/03 01:53:17;;;;;;;;;1.00;1.00;;;;;13.34;72.01;100433.22;2039965;27;2721135;-72
2024/04/03 01:54:31;;;;;;;;;1.00;1.00;;;;;13.33;71.73;100423.59;2062166;27;2730482;-71
2024/04/03 01:55:58;;;;;;;;;2.17;2.00;;;;;13.34;71.97;100426.16;2038100;27;2736754;-72
2024/04/03 01:57:11;;;;;;;;;1.00;1.00;;;;;13.33;71.92;100431.53;2038771;27;2736728;-71
2024/04/03 01:58:25;;;;;;;;;1.83;1.00;;;;;13.33;72.36;100426.25;2038402;27;2730530;-71
2024/04/03 01:59:38;;;;;;;;;2.17;1.83;;;;;13.31;71.99;100426.31;2046456;27;2727372;-72
2024/04/03 02:00:52;;;;;;;;;1.00;1.00;;;;;13.34;72.10;100420.03;2038345;27;2734656;-72
2024/04/03 02:02:05;;;;;;;;;1.17;1.17;;;;;13.35;71.70;100427.03;2038463;27;2730486;-71
2024/04/03 02:03:21;;;;;;;;;1.17;1.17;;;;;13.33;71.90;100415.69;2037515;27;2733602;-71
2024/04/03 02:04:34;;;;;;;;;1.00;1.00;;;;;13.33;72.25;100420.97;2062060;27;2737784;-71
2024/04/03 02:05:49;;;;;;;;;1.00;0.67;;;;;13.36;72.11;100420.78;2038452;27;2733631;-71
2024/04/03 02:07:02;;;;;;;;;1.17;0.83;;;;;13.36;72.43;100420.78;2039222;27;2734633;-71
2024/04/03 02:08:16;;;;;;;;;1.00;1.00;;;;;13.35;72.11;100412.03;2039599;27;2726334;-71
2024/04/03 02:09:29;;;;;;;;;2.50;1.17;;;;;13.33;72.22;100407.78;2038768;27;2744523;-72
2024/04/03 02:10:45;;;;;;;;;1.50;1.50;;;;;13.35;72.08;100416.47;2038270;27;2732565;-71
2024/04/03 02:11:58;;;;;;;;;1.00;1.00;;;;;13.33;72.03;100407.78;2037846;27;2740906;-71
2024/04/03 02:13:11;;;;;;;;;1.00;1.00;;;;;13.33;72.06;100415.69;2039283;27;2736761;-71
2024/04/03 02:14:24;;;;;;;;;1.00;1.00;;;;;13.31;72.43;100407.81;2038189;27;2735732;-72
2024/04/03 02:15:38;;;;;;;;;1.00;1.00;;;;;13.33;72.39;100413.91;2038280;27;2734688;-72
2024/04/03 02:16:51;;;;;;;;;1.67;1.00;;;;;13.31;72.25;100410.47;2037913;27;2733622;-72
2024/04/03 02:18:04;;;;;;;;;1.17;1.17;;;;;13.30;72.51;100398.22;2038193;27;2739863;-72
2024/04/03 02:19:18;;;;;;;;;0.17;0.17;;;;;13.30;72.38;100398.22;2038796;27;2742345;-71
2024/04/03 02:20:33;;;;;;;;;2.33;1.00;;;;;13.32;72.69;100400.78;2037162;27;2735687;-71
2024/04/03 02:21:46;;;;;;;;;1.00;1.00;;;;;13.31;72.46;100394.63;2039082;27;2732561;-71
2024/04/03 02:22:59;;;;;;;;;2.00;2.00;;;;;13.31;72.59;100399.91;2037314;27;2739909;-72
2024/04/03 02:24:12;;;;;;;;;2.67;1.50;;;;;13.30;72.30;100392.06;2036870;27;2740336;-72
2024/04/03 02:25:25;;;;;;;;;1.00;1.00;;;;;13.31;72.41;100394.63;2037373;27;2733676;-72
2024/04/03 02:26:39;;;;;;;;;0.83;0.67;;;;;13.32;72.42;100391.06;2039236;27;2737768;-72
2024/04/03 02:27:52;;;;;;;;;1.17;1.00;;;;;13.32;72.52;100391.06;2062787;27;2728391;-72
2024/04/03 02:29:05;;;;;;;;;1.00;1.00;;;;;13.35;72.73;100392.72;2060291;27;2741979;-72
2024/04/03 02:30:18;;;;;;;;;1.17;1.17;;;;;13.33;72.46;100398.06;2037287;27;2746152;-72
2024/04/03 02:31:32;;;;;;;;;1.00;1.00;;;;;13.32;72.58;100388.44;2038369;27;2734090;-72
2024/04/03 02:32:47;;;;;;;;;1.67;1.00;;;;;13.33;72.38;100386.66;2038264;27;2740891;-72
2024/04/03 02:34:01;;;;;;;;;1.67;1.00;;;;;13.33;72.48;100384.88;2061943;27;2744020;-72
2024/04/03 02:35:14;;;;;;;;;2.00;2.00;;;;;13.32;72.63;100388.44;2038141;27;2734656;-72
2024/04/03 02:36:27;;;;;;;;;1.33;1.33;;;;;13.32;72.74;100387.56;2038918;27;2740917;-72
2024/04/03 02:37:40;;;;;;;;;1.17;1.00;;;;;13.33;72.73;100386.66;2037982;27;2731508;-72
2024/04/03 02:38:53;;;;;;;;;0.67;0.67;;;;;13.32;72.61;100392.84;2062031;27;2735690;-71
2024/04/03 02:40:07;;;;;;;;;1.00;1.00;;;;;13.32;72.60;100400.78;2037575;27;2731551;-72
2024/04/03 02:41:20;;;;;;;;;2.83;1.67;;;;;13.30;72.67;100392.06;2069870;27;2741927;-71
2024/04/03 02:42:33;;;;;;;;;1.17;1.00;;;;;13.31;72.86;100388.53;2037083;27;2734641;-72
2024/04/03 02:43:46;;;;;;;;;1.33;1.33;;;;;13.30;72.61;100394.72;2034019;27;2733634;-72
2024/04/03 02:44:59;;;;;;;;;1.67;0.33;;;;;13.32;72.53;100392.84;2030425;27;2731542;-72
2024/04/03 02:46:13;;;;;;;;;1.00;1.00;;;;;13.31;72.72;100383.25;2061595;27;2737766;-72
2024/04/03 02:47:26;;;;;;;;;2.00;2.00;;;;;13.31;72.76;100377.97;2037922;27;2739872;-72
2024/04/03 02:48:39;;;;;;;;;1.00;0.67;;;;;13.32;72.76;100383.16;2039132;27;2727349;-72
2024/04/03 02:49:52;;;;;;;;;1.00;1.00;;;;;13.31;72.86;100381.44;2038675;27;2731512;-72
2024/04/03 02:51:10;;;;;;;;;1.50;1.50;;;;;13.32;72.75;100375.25;2038518;27;2739860;-72
2024/04/03 02:52:23;;;;;;;;;1.33;1.33;;;;;13.31;72.38;100377.97;2038354;27;2742969;-72
2024/04/03 02:53:37;;;;;;;;;0.33;0.33;;;;;13.26;72.74;100373.75;2038124;27;2734663;-72
2024/04/03 02:54:50;;;;;;;;;1.33;1.33;;;;;13.26;72.69;100375.56;2062610;27;2742989;-72
2024/04/03 02:56:09;;;;;;;;;1.00;1.00;;;;;13.27;72.77;100370.19;2036789;27;2744022;-72
2024/04/03 02:57:22;;;;;;;;;1.00;1.00;;;;;13.25;72.87;100369.41;2039826;27;2722146;-72
2024/04/03 02:58:36;;;;;;;;;1.00;1.00;;;;;13.24;72.86;100366.84;2061635;27;2735717;-72
2024/04/03 02:59:49;;;;;;;;;1.00;1.00;;;;;13.25;73.00;100368.56;2044831;27;2727424;-72
2024/04/03 03:01:11;;;;;;;;;2.17;0.67;;;;;13.26;72.88;100360.56;2031729;27;2727365;-72
2024/04/03 03:02:24;;;;;;;;;0.67;0.67;;;;;13.28;73.14;100363.13;2044647;27;2735729;-72
2024/04/03 03:03:38;;;;;;;;;1.00;1.00;;;;;13.26;73.11;100355.28;2066112;27;2729455;-72
2024/04/03 03:04:51;;;;;;;;;0.00;0.00;;;;;13.27;72.92;100356.13;2041685;27;2728417;-72
2024/04/03 03:06:05;;;;;;;;;1.83;1.83;;;;;13.27;72.73;100362.28;2038016;27;2734653;-72
2024/04/03 03:07:18;;;;;;;;;1.00;1.00;;;;;13.25;72.89;100353.59;2038098;27;2735717;-72
2024/04/03 03:08:33;;;;;;;;;1.00;1.00;;;;;13.28;72.85;100366.59;2038179;27;2732573;-72
2024/04/03 03:09:46;;;;;;;;;1.83;1.00;;;;;13.29;73.18;100356.91;2037758;27;2742996;-72
2024/04/03 03:11:01;;;;;;;;;2.00;1.33;;;;;13.28;72.99;100357.84;2037327;27;2741952;-72
2024/04/03 03:12:14;;;;;;;;;2.17;1.83;;;;;13.28;72.96;100357.84;2038525;27;2732580;-72
2024/04/03 03:13:28;;;;;;;;;1.50;1.50;;;;;13.28;73.10;100357.84;2035996;27;2738268;-72
2024/04/03 03:14:41;;;;;;;;;1.00;1.00;;;;;13.31;72.86;100357.69;2031749;27;2729842;-72
2024/04/03 03:15:59;;;;;;;;;3.00;2.00;;;;;13.30;73.05;100350.72;2037817;27;2720100;-72
2024/04/03 03:17:13;;;;;;;;;0.67;0.67;;;;;13.31;73.15;100359.50;2038848;27;2733595;-72
2024/04/03 03:18:33;;;;;;;;;0.83;0.83;;;;;13.30;73.00;100358.63;2037410;27;2737336;-72
2024/04/03 03:19:46;;;;;;;;;1.00;1.00;;;;;13.27;73.11;100354.34;2038162;27;2735856;-72
2024/04/03 03:20:59;;;;;;;;;1.00;1.00;;;;;13.28;73.21;100366.59;2037492;27;2739887;-72
2024/04/03 03:22:12;;;;;;;;;1.00;1.00;;;;;13.25;73.19;100353.59;2061917;27;2731527;-72
2024/04/03 03:23:26;;;;;;;;;3.00;1.67;;;;;13.27;73.18;100357.00;2036819;27;2739848;-72
2024/04/03 03:24:39;;;;;;;;;2.67;1.50;;;;;13.26;73.35;100351.81;2038308;27;2725305;-72
2024/04/03 03:25:53;;;;;;;;;1.17;1.17;;;;;13.27;72.96;100356.13;2038628;27;2734663;-72
2024/04/03 03:27:06;;;;;;;;;1.67;1.67;;;;;13.26;73.17;100346.53;2038163;27;2738807;-72
2024/04/03 03:28:20;;;;;;;;;1.00;1.00;;;;;13.25;73.17;100347.44;2038963;27;2733730;-72
2024/04/03 03:29:33;;;;;;;;;1.00;1.00;;;;;13.26;73.33;100351.81;2038157;27;2735705;-72
2024/04/03 03:30:50;;;;;;;;;1.17;1.17;;;;;13.27;73.41;100350.84;2035704;27;2728438;-72
2024/04/03 03:32:04;;;;;;;;;1.33;0.50;;;;;13.26;73.24;100352.63;2060851;27;2730509;-72
2024/04/03 03:33:17;;;;;;;;;1.00;1.00;;;;;13.28;73.38;100353.41;2030155;27;2733647;-72
2024/04/03 03:34:31;;;;;;;;;1.17;0.00;;;;;13.30;73.52;100361.28;2037471;27;2727393;-71
2024/04/03 03:35:57;;;;;;;;;0.83;0.83;;;;;13.28;73.27;100353.41;2035998;27;2736048;-72
2024/04/03 03:37:11;;;;;;;;;0.83;0.33;;;;;13.31;73.06;100346.28;2062062;27;2738260;-72
2024/04/03 03:38:24;;;;;;;;;1.83;1.00;;;;;13.33;73.13;100349.69;2037447;27;2740894;-72
2024/04/03 03:39:37;;;;;;;;;1.00;1.00;;;;;13.32;73.15;100340.06;2038088;27;2735080;-72
2024/04/03 03:40:54;;;;;;;;;3.50;1.50;;;;;13.32;73.29;100343.56;2036466;27;2730477;-72
2024/04/03 03:42:08;;;;;;;;;1.33;1.33;;;;;13.33;73.24;100344.44;2039116;27;2730954;-72
2024/04/03 03:43:21;;;;;;;;;1.00;1.00;;;;;13.32;73.13;100340.91;2037617;27;2735978;-72
2024/04/03 03:44:34;;;;;;;;;1.00;1.00;;;;;13.28;73.19;100334.94;2038714;27;2737766;-72
2024/04/03 03:45:49;;;;;;;;;0.50;0.50;;;;;13.30;73.29;100334.00;2038143;27;2724606;-72
2024/04/03 03:47:03;;;;;;;;;1.00;1.00;;;;;13.31;73.19;100335.72;2061964;27;2737758;-72
2024/04/03 03:48:17;;;;;;;;;1.00;1.00;;;;;13.32;73.35;100337.44;2037345;27;2720055;-72
2024/04/03 03:52:44;;;;;;;;;1.50;1.50;;;;;13.28;73.02;100321.75;2054359;27;2734645;-72
2024/04/03 03:53:57;;;;;;;;;0.00;0.00;;;;;13.30;73.38;100331.38;2038453;27;2722152;-71
2024/04/03 03:55:10;;;;;;;;;1.00;1.00;;;;;13.28;73.61;100319.09;2062040;27;2734673;-72
2024/04/03 03:56:24;;;;;;;;;2.00;2.00;;;;;13.29;73.16;100327.88;2037498;27;2727365;-72
2024/04/03 03:57:37;;;;;;;;;1.00;1.00;;;;;13.28;73.53;100327.00;2038931;27;2734645;-72
2024/04/03 03:58:50;;;;;;;;;1.17;1.17;;;;;13.28;73.47;100329.66;2043186;27;2735702;-72
2024/04/03 04:00:05;;;;;;;;;0.83;0.83;;;;;13.27;73.61;100320.03;2043929;27;2733598;-72
2024/04/03 04:01:18;;;;;;;;;2.17;1.17;;;;;13.25;73.61;100324.56;2036863;27;2737785;-72
2024/04/03 04:02:31;;;;;;;;;1.67;1.67;;;;;13.27;73.39;100321.81;2038072;27;2735694;-72
2024/04/03 04:03:44;;;;;;;;;1.50;1.33;;;;;13.27;73.49;100321.81;2037816;27;2741955;-72
2024/04/03 04:04:58;;;;;;;;;0.83;0.83;;;;;13.26;73.49;100315.69;2038442;27;2728442;-72
2024/04/03 04:06:11;;;;;;;;;1.00;1.00;;;;;13.28;73.39;100323.53;2061279;27;2731516;-72
2024/04/03 04:07:24;;;;;;;;;2.00;1.00;;;;;13.28;73.29;100327.00;2038641;27;2735678;-72
2024/04/03 04:08:37;;;;;;;;;1.17;1.17;;;;;13.28;73.74;100319.09;2045567;27;2740953;-72
2024/04/03 04:09:52;;;;;;;;;1.50;1.50;;;;;13.27;73.23;100317.41;2043876;27;2746106;-72
2024/04/03 04:11:05;;;;;;;;;1.00;1.00;;;;;13.29;73.42;100309.41;2037535;27;2730494;-72
2024/04/03 04:12:19;;;;;;;;;1.00;1.00;;;;;13.30;73.39;100316.41;2037723;27;2727361;-72
2024/04/03 04:13:32;;;;;;;;;2.00;2.00;;;;;13.30;73.38;100324.31;2061654;27;2738263;-72
2024/04/03 04:14:52;;;;;;;;;1.33;1.33;;;;;13.30;73.34;100312.91;2062044;27;2733591;-72
2024/04/03 04:16:06;;;;;;;;;0.17;0.17;;;;;13.31;73.61;100311.97;2038356;27;2721091;-72
2024/04/03 04:17:21;;;;;;;;;0.83;0.83;;;;;13.31;73.53;100319.91;2061754;27;2725293;-72
2024/04/03 04:18:35;;;;;;;;;1.83;1.00;;;;;13.30;73.64;100310.25;2037038;27;2736712;-72
2024/04/03 04:19:49;;;;;;;;;1.17;0.83;;;;;13.30;73.37;100315.53;2036753;27;2725318;-72
2024/04/03 04:21:03;;;;;;;;;0.00;0.00;;;;;13.30;73.44;100311.13;2061677;27;2726291;-72
2024/04/03 04:22:16;;;;;;;;;1.50;0.00;;;;;13.31;73.60;100309.34;2038114;27;2733603;-72
2024/04/03 04:23:30;;;;;;;;;0.83;0.83;;;;;13.30;73.45;100307.63;2030475;27;2737813;-72
2024/04/03 04:24:46;;;;;;;;;2.00;1.00;;;;;13.29;73.68;100306.75;2037263;27;2740894;-72
2024/04/03 04:26:02;;;;;;;;;1.50;1.00;;;;;13.32;73.73;100311.03;2046179;27;2725282;-72
2024/04/03 04:27:15;;;;;;;;;0.33;0.33;;;;;13.32;73.38;100308.41;2044124;27;2729439;-72
2024/04/03 04:28:29;;;;;;;;;1.17;1.00;;;;;13.32;73.59;100311.03;2062871;27;2732590;-72
2024/04/03 04:29:42;;;;;;;;;1.00;1.00;;;;;13.30;73.69;100302.34;2076682;27;2737836;-72
2024/04/03 04:31:03;;;;;;;;;1.00;1.00;;;;;13.31;73.55;100304.06;2045355;27;2719483;-72
2024/04/03 04:32:16;;;;;;;;;0.00;0.00;;;;;13.28;73.52;100300.63;2061849;27;2731504;-72
2024/04/03 04:33:34;;;;;;;;;1.17;0.17;;;;;13.31;73.55;100301.44;2037982;27;2734649;-72
2024/04/03 04:34:47;;;;;;;;;1.00;1.00;;;;;13.32;73.75;100305.75;2038841;27;2728385;-72
2024/04/03 04:36:00;;;;;;;;;1.00;1.00;;;;;13.29;73.70;100301.47;2036827;27;2726346;-72
2024/04/03 04:37:13;;;;;;;;;1.00;1.00;;;;;13.30;73.57;100307.63;2034769;27;2730466;-72
2024/04/03 04:38:28;;;;;;;;;1.00;1.00;;;;;13.32;73.51;100305.75;2038292;27;2730962;-72
2024/04/03 04:39:41;;;;;;;;;2.00;1.00;;;;;13.30;73.52;100295.28;2038607;27;2736744;-72
2024/04/03 04:40:58;;;;;;;;;0.00;0.00;;;;;13.31;73.75;100298.78;2035074;27;2725741;-72
2024/04/03 04:42:11;;;;;;;;;1.50;1.33;;;;;13.28;73.66;100303.25;2061806;27;2737769;-72
2024/04/03 04:43:27;;;;;;;;;1.00;1.00;;;;;13.28;73.50;100305.91;2037956;27;2728446;-72
2024/04/03 04:44:40;;;;;;;;;1.00;1.00;;;;;13.27;73.60;100298.06;2038857;27;2729469;-72
2024/04/03 04:46:02;;;;;;;;;1.33;1.33;;;;;13.27;73.64;100298.06;2038195;27;2736716;-71
2024/04/03 04:47:15;;;;;;;;;1.00;1.00;;;;;13.27;73.76;100290.16;2037445;27;2729431;-72
2024/04/03 04:48:30;;;;;;;;;1.00;1.00;;;;;13.26;73.86;100296.38;2061504;27;2725277;-72
2024/04/03 04:49:43;;;;;;;;;1.00;1.00;;;;;13.28;73.69;100294.50;2061900;27;2730473;-71
2024/04/03 04:50:58;;;;;;;;;0.00;0.00;;;;;13.27;73.68;100293.66;2036561;27;2725780;-71
2024/04/03 04:52:11;;;;;;;;;1.50;0.33;;;;;13.25;73.50;100292.88;2034589;27;2727349;-71
2024/04/03 04:53:25;;;;;;;;;1.00;1.00;;;;;13.27;73.73;100287.50;2030503;27;2731512;-71
2024/04/03 04:54:38;;;;;;;;;2.00;2.00;;;;;13.27;73.85;100291.00;2030649;27;2738823;-71
2024/04/03 04:55:57;;;;;;;;;1.00;1.00;;;;;13.29;74.01;100290.94;2036795;27;2727346;-71
2024/04/03 04:57:15;;;;;;;;;1.00;1.00;;;;;13.26;73.88;100291.94;2038036;27;2734668;-71
2024/04/03 04:58:29;;;;;;;;;1.00;1.00;;;;;13.25;73.85;100290.25;2061356;27;2737785;-71
2024/04/03 04:59:42;;;;;;;;;0.67;0.67;;;;;13.24;73.96;100288.53;2037525;27;2737757;-72
2024/04/03 05:01:06;;;;;;;;;1.00;1.00;;;;;13.25;73.72;100284.97;2058810;27;2727360;-72
2024/04/03 05:02:19;;;;;;;;;0.83;0.83;;;;;13.24;73.96;100285.88;2061511;27;2732561;-71
2024/04/03 05:03:33;;;;;;;;;0.17;0.17;;;;;13.25;73.76;100294.66;2038509;27;2725290;-72
2024/04/03 05:04:46;;;;;;;;;1.00;0.50;;;;;13.25;73.60;100284.97;2061670;27;2727334;-72
2024/04/03 05:06:00;;;;;;;;;1.17;1.17;;;;;13.24;73.66;100288.53;2060339;27;2724256;-72
2024/04/03 05:07:13;;;;;;;;;0.33;0.33;;;;;13.23;73.89;100283.34;2039816;27;2727364;-72
2024/04/03 05:08:26;;;;;;;;;1.00;1.00;;;;;13.24;73.85;100288.53;2038594;27;2720052;-72
2024/04/03 05:09:39;;;;;;;;;0.83;0.50;;;;;13.24;73.83;100292.94;2063161;27;2731531;-72
2024/04/03 05:10:57;;;;;;;;;1.33;1.33;;;;;13.22;73.89;100293.03;2063114;27;2734648;-72
2024/04/03 05:12:10;;;;;;;;;1.00;1.00;;;;;13.23;73.91;100294.75;2039231;27;2736775;-72
2024/04/03 05:13:26;;;;;;;;;1.00;1.00;;;;;13.24;73.96;100287.66;2038042;27;2739875;-72
2024/04/03 05:14:39;;;;;;;;;1.00;1.00;;;;;13.24;73.75;100291.16;2047598;27;2726331;-72
2024/04/03 05:15:53;;;;;;;;;1.50;1.50;;;;;13.24;73.60;100293.81;2045597;27;2735682;-72
2024/04/03 05:17:06;;;;;;;;;1.17;0.67;;;;;13.24;73.89;100290.31;2040619;27;2721099;-72
2024/04/03 05:18:19;;;;;;;;;0.83;0.83;;;;;13.25;73.75;100289.38;2038426;27;2723217;-72
2024/04/03 05:19:32;;;;;;;;;1.33;1.00;;;;;13.24;73.88;100293.81;2038185;27;2728397;-71
2024/04/03 05:20:45;;;;;;;;;0.83;0.83;;;;;13.24;73.70;100295.59;2037867;27;2725270;-72
2024/04/03 05:21:59;;;;;;;;;1.00;1.00;;;;;13.25;73.96;100292.03;2038735;27;2736766;-71
2024/04/03 05:23:12;;;;;;;;;0.83;0.83;;;;;13.25;73.95;100300.81;2037810;27;2733598;-71
2024/04/03 05:24:25;;;;;;;;;1.00;1.00;;;;;13.24;74.00;100293.81;2063198;27;2723210;-71
2024/04/03 05:25:38;;;;;;;;;0.67;0.67;;;;;13.24;74.02;100292.94;2061930;27;2736778;-72
2024/04/03 05:26:51;;;;;;;;;0.50;0.50;;;;;13.25;74.17;100300.81;2040055;27;2727440;-71
2024/04/03 05:28:05;;;;;;;;;1.67;0.83;;;;;13.25;73.81;100299.94;2044705;27;2728394;-72
2024/04/03 05:29:18;;;;;;;;;2.00;1.00;;;;;13.24;74.26;100296.44;2042144;27;2737835;-72
2024/04/03 05:30:35;;;;;;;;;1.17;1.17;;;;;13.24;74.04;100295.59;2037168;27;2738899;-71
2024/04/03 05:31:48;;;;;;;;;1.50;1.00;;;;;13.23;74.09;100296.53;2039032;27;2737778;-71
2024/04/03 05:33:02;;;;;;;;;0.33;0.33;;;;;13.24;73.95;100293.81;2036974;27;2737805;-71
2024/04/03 05:34:15;;;;;;;;;1.00;0.83;;;;;13.23;74.17;100294.75;2039056;27;2730497;-72
2024/04/03 05:35:28;;;;;;;;;1.00;1.00;;;;;13.24;74.19;100298.22;2061398;27;2732592;-72
2024/04/03 05:36:41;;;;;;;;;0.17;0.17;;;;;13.23;74.19;100296.53;2039214;27;2735713;-72
2024/04/03 05:37:54;;;;;;;;;1.33;1.00;;;;;13.26;74.17;100301.66;2030044;27;2735674;-72
2024/04/03 05:39:08;;;;;;;;;1.83;1.83;;;;;13.24;74.22;100293.81;2035266;27;2733686;-72